createdAt,value
2023-05-18T00:03:38.309Z,43.4
2023-05-18T00:09:15.429Z,43.3
2023-05-18T00:14:36.684Z,43.3
2023-05-18T00:19:59.360Z,43.3
2023-05-18T00:25:19.962Z,43.3
2023-05-18T00:30:40.292Z,43.3
2023-05-18T00:36:18.460Z,43.3
2023-05-18T00:41:53.984Z,43.2
2023-05-18T00:47:46.569Z,43.2
2023-05-18T00:53:38.320Z,43.2
2023-05-18T00:59:14.106Z,43.1
2023-05-18T01:05:06.670Z,43.1
2023-05-18T01:10:27.584Z,43.4
2023-05-18T01:16:19.091Z,44.5
2023-05-18T01:22:10.508Z,45.6
2023-05-18T01:27:47.193Z,46.7
2023-05-18T01:33:38.404Z,47.9
2023-05-18T01:39:17.195Z,48.9
2023-05-18T01:45:09.187Z,50.1
2023-05-18T01:50:46.201Z,51.3
2023-05-18T01:56:22.137Z,52.4
2023-05-18T02:01:59.889Z,53.6
2023-05-18T02:07:36.644Z,54.8
2023-05-18T02:13:27.559Z,55.8
2023-05-18T02:19:20.248Z,56.3
2023-05-18T02:25:14.026Z,56.3
2023-05-18T02:30:51.057Z,56.3
2023-05-18T02:36:43.682Z,56.3
2023-05-18T02:42:19.621Z,56.3
2023-05-18T02:48:11.992Z,56.3
2023-05-18T02:53:48.466Z,56.2
2023-05-18T02:59:41.566Z,56.2
2023-05-18T03:05:34.859Z,56.1
2023-05-18T03:11:27.170Z,56.1
2023-05-18T03:17:18.448Z,56.1
2023-05-18T03:22:25.586Z,56.1
2023-05-18T03:28:02.425Z,56
2023-05-18T03:33:54.234Z,56
2023-05-18T03:39:46.048Z,55.9
2023-05-18T03:45:37.984Z,55.9
2023-05-18T03:51:14.280Z,55.9
2023-05-18T03:57:06.583Z,55.9
2023-05-18T04:02:59.530Z,55.8
2023-05-18T04:08:53.828Z,55.8
2023-05-18T04:14:45.228Z,55.8
2023-05-18T04:20:38.399Z,55.8
2023-05-18T04:26:30.065Z,55.7
2023-05-18T04:32:21.236Z,55.6
2023-05-18T04:37:59.380Z,55.6
2023-05-18T04:43:50.642Z,55.5
2023-05-18T04:49:43.290Z,55.5
2023-05-18T04:55:20.126Z,55.5
2023-05-18T05:01:11.182Z,55.4
2023-05-18T05:07:06.313Z,55.4
2023-05-18T05:12:58.770Z,55.4
2023-05-18T05:18:50.230Z,55.3
2023-05-18T05:24:42.532Z,55.3
2023-05-18T05:30:35.486Z,55.3
2023-05-18T05:36:12.245Z,55.2
2023-05-18T05:42:05.579Z,55.2
2023-05-18T05:47:58.201Z,55.2
2023-05-18T05:53:49.550Z,55.1
2023-05-18T05:59:41.166Z,55.1
2023-05-18T06:05:34.286Z,55.1
2023-05-18T06:11:28.006Z,55
2023-05-18T06:17:20.409Z,55
2023-05-18T06:23:15.970Z,54.9
2023-05-18T06:29:07.288Z,54.9
2023-05-18T06:34:59.990Z,54.9
2023-05-18T06:40:37.834Z,54.8
2023-05-18T06:46:29.112Z,54.8
2023-05-18T06:52:05.260Z,54.8
2023-05-18T06:57:42.383Z,54.7
2023-05-18T07:03:33.826Z,54.7
2023-05-18T07:09:26.784Z,54.6
2023-05-18T07:14:47.348Z,54.6
2023-05-18T07:20:42.202Z,54.6
2023-05-18T07:26:33.498Z,54.6
2023-05-18T07:32:10.519Z,54.5
2023-05-18T07:38:02.593Z,54.4
2023-05-18T07:43:39.181Z,54.4
2023-05-18T07:49:32.362Z,54.4
2023-05-18T07:55:08.106Z,54.3
2023-05-18T08:00:43.825Z,54.3
2023-05-18T08:06:22.012Z,54.3
2023-05-18T08:11:57.620Z,54.3
2023-05-18T08:18:06.484Z,54.2
2023-05-18T08:23:43.575Z,54.2
2023-05-18T08:29:20.603Z,54.1
2023-05-18T08:34:57.820Z,54.1
2023-05-18T08:40:35.214Z,54.1
2023-05-18T08:46:11.008Z,54
2023-05-18T08:51:51.011Z,54
2023-05-18T08:57:27.713Z,53.9
2023-05-18T09:03:04.101Z,53.9
2023-05-18T09:08:41.231Z,53.9
2023-05-18T09:14:19.981Z,53.9
2023-05-18T09:19:56.393Z,53.8
2023-05-18T09:25:32.716Z,53.8
2023-05-18T09:31:12.304Z,53.8
2023-05-18T09:36:49.106Z,53.7
2023-05-18T09:42:25.317Z,53.7
2023-05-18T09:47:46.988Z,53.6
2023-05-18T09:53:08.033Z,53.6
2023-05-18T09:58:42.834Z,53.6
2023-05-18T10:04:23.144Z,53.5
2023-05-18T10:09:44.402Z,53.5
2023-05-18T10:14:50.024Z,53.4
2023-05-18T10:20:22.786Z,53.4
2023-05-18T10:25:31.231Z,53.4
2023-05-18T10:31:09.087Z,53.4
2023-05-18T10:37:06.348Z,53.3
2023-05-18T10:42:27.314Z,53.3
2023-05-18T10:47:35.649Z,53.3
2023-05-18T10:52:57.766Z,53.2
2023-05-18T10:59:17.080Z,53.2
2023-05-18T11:04:37.965Z,53.1
2023-05-18T11:10:15.194Z,53.1
2023-05-18T11:15:35.561Z,53.1
2023-05-18T11:21:12.150Z,53.1
2023-05-18T11:27:04.299Z,53
2023-05-18T11:32:59.124Z,53
2023-05-18T11:38:37.183Z,52.9
2023-05-18T11:44:30.051Z,52.9
2023-05-18T11:49:50.541Z,52.9
2023-05-18T11:55:29.556Z,52.8
2023-05-18T12:00:54.172Z,52.8
2023-05-18T12:06:38.136Z,52.8
2023-05-18T12:12:14.411Z,52.8
2023-05-18T12:17:37.756Z,52.7
2023-05-18T12:23:12.535Z,52.6
2023-05-18T12:28:48.262Z,52.4
2023-05-18T12:40:00.514Z,52.3
2023-05-18T12:45:39.272Z,52.3
2023-05-18T12:51:33.631Z,52.3
2023-05-18T12:57:24.857Z,52.2
2023-05-18T13:03:01.387Z,52.2
2023-05-18T13:08:38.956Z,52.2
2023-05-18T13:14:57.049Z,52.1
2023-05-18T13:20:52.566Z,52.1
2023-05-18T13:26:31.480Z,52
2023-05-18T13:31:51.545Z,52
2023-05-18T13:37:44.919Z,52
2023-05-18T13:48:43.842Z,51.9
2023-05-18T13:54:20.002Z,51.8
2023-05-18T14:00:14.030Z,51.8
2023-05-18T14:06:05.928Z,51.8
2023-05-18T14:11:28.106Z,51.8
2023-05-18T14:17:20.643Z,51.7
2023-05-18T14:23:11.919Z,51.6
2023-05-18T14:29:03.088Z,51.6
2023-05-18T14:34:55.603Z,51.5
2023-05-18T14:40:33.059Z,51.4
2023-05-18T14:46:40.166Z,51.4
2023-05-18T14:52:34.719Z,51.4
2023-05-18T14:58:24.894Z,51.3
2023-05-18T15:04:17.822Z,51.3
2023-05-18T15:10:10.064Z,51.3
2023-05-18T15:15:45.232Z,51.2
2023-05-18T15:21:37.317Z,51.2
2023-05-18T15:27:31.151Z,51.1
2023-05-18T15:33:22.173Z,51.1
2023-05-18T15:39:13.504Z,51.1
2023-05-18T15:45:05.990Z,50.9
2023-05-18T15:50:41.529Z,50.8
2023-05-18T15:56:33.292Z,50.7
2023-05-18T16:02:25.959Z,50.6
2023-05-18T16:08:01.884Z,50.5
2023-05-18T16:13:38.305Z,50.5
2023-05-18T16:19:33.928Z,50.4
2023-05-18T16:25:24.416Z,50.4
2023-05-18T16:30:46.042Z,50.3
2023-05-18T16:36:38.822Z,50.3
2023-05-18T16:42:30.620Z,50.2
2023-05-18T16:48:23.112Z,50.2
2023-05-18T16:54:18.335Z,50.1
2023-05-18T17:00:08.930Z,50.1
2023-05-18T17:06:17.415Z,50
2023-05-18T17:11:57.118Z,50
2023-05-18T17:17:33.376Z,49.9
2023-05-18T17:23:25.228Z,49.9
2023-05-18T17:29:31.413Z,49.9
2023-05-18T17:35:07.556Z,49.8
2023-05-18T17:40:58.803Z,49.8
2023-05-18T17:46:51.791Z,49.8
2023-05-18T17:52:43.474Z,49.7
2023-05-18T17:58:33.943Z,49.7
2023-05-18T18:04:12.260Z,49.6
2023-05-18T18:09:49.061Z,49.6
2023-05-18T18:15:41.025Z,49.5
2023-05-18T18:21:18.824Z,49.5
2023-05-18T18:27:10.398Z,49.4
2023-05-18T18:32:46.835Z,49.4
2023-05-18T18:38:08.333Z,49.4
2023-05-18T18:43:59.955Z,49.3
2023-05-18T18:49:52.224Z,49.3
2023-05-18T18:55:44.485Z,49.1
2023-05-18T19:01:19.412Z,48.6
2023-05-18T19:07:12.008Z,48.5
2023-05-18T19:12:48.755Z,48.4
2023-05-18T19:18:41.317Z,48.4
2023-05-18T19:24:33.568Z,48.3
2023-05-18T19:30:25.872Z,48.1
2023-05-18T19:36:18.714Z,48.1
2023-05-18T19:41:57.343Z,47.9
2023-05-18T19:47:50.826Z,47.8
2023-05-18T19:53:41.637Z,47.7
2023-05-18T19:59:33.024Z,47.6
2023-05-18T20:05:10.914Z,47.6
2023-05-18T20:11:02.424Z,47.5
2023-05-18T20:16:54.375Z,47.4
2023-05-18T20:22:31.855Z,47.4
2023-05-18T20:28:10.440Z,47.3
2023-05-18T20:33:31.624Z,47.3
2023-05-18T20:39:08.527Z,47.3
2023-05-18T20:44:44.288Z,47.2
2023-05-18T20:50:36.797Z,47.2
2023-05-18T20:56:28.807Z,47.1
2023-05-18T21:02:20.210Z,47.1
2023-05-18T21:08:00.717Z,47
2023-05-18T21:13:22.374Z,46.9
2023-05-18T21:19:13.807Z,46.9
2023-05-18T21:25:05.331Z,46.9
2023-05-18T21:30:57.648Z,46.8
2023-05-18T21:36:49.722Z,46.8
2023-05-18T21:42:26.373Z,46.8
2023-05-18T21:47:50.150Z,46.7
2023-05-18T21:53:26.214Z,46.6
2023-05-18T21:59:03.479Z,46.6
2023-05-18T22:04:56.182Z,46.6
2023-05-18T22:10:47.525Z,46.5
2023-05-18T22:16:07.560Z,46.4
2023-05-18T22:21:44.468Z,46.4
2023-05-18T22:27:31.691Z,46.4
2023-05-18T22:33:08.505Z,46.3
2023-05-18T22:38:44.481Z,46.3
2023-05-18T22:44:19.724Z,46.2
2023-05-18T22:50:11.722Z,46.2
2023-05-18T22:55:48.357Z,46.1
2023-05-18T23:01:23.996Z,46.1
2023-05-18T23:07:00.760Z,46
2023-05-18T23:12:52.200Z,46
2023-05-18T23:18:44.108Z,45.9
2023-05-18T23:24:35.661Z,45.9
2023-05-18T23:30:27.932Z,45.8
2023-05-18T23:36:20.174Z,45.8
2023-05-18T23:42:12.182Z,45.8
2023-05-18T23:48:04.461Z,45.7
2023-05-18T23:53:56.016Z,45.7
2023-05-18T23:59:47.752Z,45.6
